sensor_id;sensor_type;location;lat;lon;timestamp;temperature;humidity
21844;DHT22;11084;52.482;9.108;2022-10-16T00:01:16;12.30;99.90
21844;DHT22;11084;52.482;9.108;2022-10-16T00:03:46;12.30;99.90
21844;DHT22;11084;52.482;9.108;2022-10-16T00:06:13;12.20;99.90
21844;DHT22;11084;52.482;9.108;2022-10-16T00:08:40;12.30;99.90
21844;DHT22;11084;52.482;9.108;2022-10-16T00:11:19;12.30;99.90
21844;DHT22;11084;52.482;9.108;2022-10-16T00:13:50;12.30;99.90
21844;DHT22;11084;52.482;9.108;2022-10-16T00:16:18;12.30;99.90
21844;DHT22;11084;52.482;9.108;2022-10-16T00:18:45;12.30;99.90
21844;DHT22;11084;52.482;9.108;2022-10-16T00:21:17;12.30;99.90
21844;DHT22;11084;52.482;9.108;2022-10-16T00:23:45;12.30;99.90
21844;DHT22;11084;52.482;9.108;2022-10-16T00:26:13;12.30;99.90
21844;DHT22;11084;52.482;9.108;2022-10-16T00:28:41;12.30;99.90
21844;DHT22;11084;52.482;9.108;2022-10-16T00:31:10;12.30;99.90
21844;DHT22;11084;52.482;9.108;2022-10-16T00:33:38;12.30;99.90
21844;DHT22;11084;52.482;9.108;2022-10-16T00:36:08;12.30;99.90
21844;DHT22;11084;52.482;9.108;2022-10-16T00:38:36;12.30;99.90
21844;DHT22;11084;52.482;9.108;2022-10-16T00:41:04;13.20;99.90
21844;DHT22;11084;52.482;9.108;2022-10-16T00:43:41;12.30;99.90
21844;DHT22;11084;52.482;9.108;2022-10-16T00:51:45;12.30;99.90
21844;DHT22;11084;52.482;9.108;2022-10-16T00:54:26;12.30;99.90
21844;DHT22;11084;52.482;9.108;2022-10-16T00:56:55;12.30;99.90
21844;DHT22;11084;52.482;9.108;2022-10-16T00:59:40;12.30;99.90
21844;DHT22;11084;52.482;9.108;2022-10-16T01:02:10;12.30;99.90
21844;DHT22;11084;52.482;9.108;2022-10-16T01:04:46;12.30;99.90
21844;DHT22;11084;52.482;9.108;2022-10-16T01:10:27;12.00;99.90
21844;DHT22;11084;52.482;9.108;2022-10-16T01:13:11;12.30;99.90
21844;DHT22;11084;52.482;9.108;2022-10-16T01:16:00;12.30;99.90
21844;DHT22;11084;52.482;9.108;2022-10-16T01:18:44;12.30;99.90
21844;DHT22;11084;52.482;9.108;2022-10-16T01:21:28;12.20;99.90
21844;DHT22;11084;52.482;9.108;2022-10-16T01:32:38;12.20;99.90
21844;DHT22;11084;52.482;9.108;2022-10-16T01:40:19;12.10;99.90
21844;DHT22;11084;52.482;9.108;2022-10-16T01:42:53;12.10;99.90
21844;DHT22;11084;52.482;9.108;2022-10-16T01:45:22;12.10;99.90
21844;DHT22;11084;52.482;9.108;2022-10-16T01:47:51;12.10;99.90
21844;DHT22;11084;52.482;9.108;2022-10-16T01:50:19;12.10;99.90
21844;DHT22;11084;52.482;9.108;2022-10-16T01:52:49;12.10;99.90
21844;DHT22;11084;52.482;9.108;2022-10-16T01:55:23;12.00;99.90
21844;DHT22;11084;52.482;9.108;2022-10-16T01:57:54;12.00;99.90
21844;DHT22;11084;52.482;9.108;2022-10-16T02:00:21;12.00;99.90
21844;DHT22;11084;52.482;9.108;2022-10-16T02:02:53;12.00;99.90
21844;DHT22;11084;52.482;9.108;2022-10-16T02:05:40;11.90;99.90
21844;DHT22;11084;52.482;9.108;2022-10-16T02:08:18;11.90;99.90
21844;DHT22;11084;52.482;9.108;2022-10-16T02:10:44;11.90;99.90
21844;DHT22;11084;52.482;9.108;2022-10-16T02:13:18;11.80;99.90
21844;DHT22;11084;52.482;9.108;2022-10-16T02:15:47;11.80;99.90
21844;DHT22;11084;52.482;9.108;2022-10-16T02:18:13;11.80;99.90
21844;DHT22;11084;52.482;9.108;2022-10-16T02:20:51;11.80;99.90
21844;DHT22;11084;52.482;9.108;2022-10-16T02:23:41;11.70;99.90
21844;DHT22;11084;52.482;9.108;2022-10-16T02:26:37;11.70;99.90
21844;DHT22;11084;52.482;9.108;2022-10-16T02:29:11;11.70;99.90
21844;DHT22;11084;52.482;9.108;2022-10-16T02:31:41;11.70;99.90
21844;DHT22;11084;52.482;9.108;2022-10-16T02:34:12;11.70;99.90
21844;DHT22;11084;52.482;9.108;2022-10-16T02:36:40;11.60;99.90
21844;DHT22;11084;52.482;9.108;2022-10-16T02:39:07;11.60;99.90
21844;DHT22;11084;52.482;9.108;2022-10-16T02:41:33;11.60;99.90
21844;DHT22;11084;52.482;9.108;2022-10-16T02:44:00;11.50;99.90
21844;DHT22;11084;52.482;9.108;2022-10-16T02:46:26;11.50;99.90
21844;DHT22;11084;52.482;9.108;2022-10-16T02:48:52;11.50;99.90
21844;DHT22;11084;52.482;9.108;2022-10-16T02:51:18;11.50;99.90
21844;DHT22;11084;52.482;9.108;2022-10-16T02:53:44;11.50;99.90
21844;DHT22;11084;52.482;9.108;2022-10-16T02:56:10;11.40;99.90
21844;DHT22;11084;52.482;9.108;2022-10-16T02:58:37;11.40;99.90
21844;DHT22;11084;52.482;9.108;2022-10-16T03:01:03;11.40;99.90
21844;DHT22;11084;52.482;9.108;2022-10-16T03:03:29;11.40;99.90
21844;DHT22;11084;52.482;9.108;2022-10-16T03:05:55;11.40;99.90
21844;DHT22;11084;52.482;9.108;2022-10-16T03:08:21;11.40;99.90
21844;DHT22;11084;52.482;9.108;2022-10-16T03:10:49;11.40;99.90
21844;DHT22;11084;52.482;9.108;2022-10-16T03:13:16;11.30;99.90
21844;DHT22;11084;52.482;9.108;2022-10-16T03:15:43;11.40;99.90
21844;DHT22;11084;52.482;9.108;2022-10-16T03:18:09;11.40;99.90
21844;DHT22;11084;52.482;9.108;2022-10-16T03:25:28;11.30;99.90
21844;DHT22;11084;52.482;9.108;2022-10-16T03:27:54;11.40;99.90
21844;DHT22;11084;52.482;9.108;2022-10-16T03:30:20;11.40;99.90
21844;DHT22;11084;52.482;9.108;2022-10-16T03:32:46;11.40;99.90
21844;DHT22;11084;52.482;9.108;2022-10-16T03:35:13;11.40;99.90
21844;DHT22;11084;52.482;9.108;2022-10-16T03:37:39;11.40;99.90
21844;DHT22;11084;52.482;9.108;2022-10-16T03:40:05;11.40;99.90
21844;DHT22;11084;52.482;9.108;2022-10-16T03:42:31;11.40;99.90
21844;DHT22;11084;52.482;9.108;2022-10-16T03:44:57;11.40;99.90
21844;DHT22;11084;52.482;9.108;2022-10-16T03:47:24;11.50;99.90
21844;DHT22;11084;52.482;9.108;2022-10-16T03:49:50;11.40;99.90
21844;DHT22;11084;52.482;9.108;2022-10-16T03:52:16;11.50;99.90
21844;DHT22;11084;52.482;9.108;2022-10-16T03:57:08;11.50;99.90
21844;DHT22;11084;52.482;9.108;2022-10-16T03:59:34;11.50;99.90
21844;DHT22;11084;52.482;9.108;2022-10-16T04:02:00;11.50;99.90
21844;DHT22;11084;52.482;9.108;2022-10-16T04:04:26;11.50;99.90
21844;DHT22;11084;52.482;9.108;2022-10-16T04:06:52;11.50;99.90
21844;DHT22;11084;52.482;9.108;2022-10-16T04:09:18;11.50;99.90
21844;DHT22;11084;52.482;9.108;2022-10-16T04:11:44;11.50;99.90
21844;DHT22;11084;52.482;9.108;2022-10-16T04:14:10;11.50;99.90
21844;DHT22;11084;52.482;9.108;2022-10-16T04:16:36;11.50;99.90
21844;DHT22;11084;52.482;9.108;2022-10-16T04:19:02;11.50;99.90
21844;DHT22;11084;52.482;9.108;2022-10-16T04:21:28;11.50;99.90
21844;DHT22;11084;52.482;9.108;2022-10-16T04:23:54;11.50;99.90
21844;DHT22;11084;52.482;9.108;2022-10-16T04:28:47;11.50;99.90
21844;DHT22;11084;52.482;9.108;2022-10-16T04:31:12;11.60;99.90
21844;DHT22;11084;52.482;9.108;2022-10-16T04:33:38;11.50;99.90
21844;DHT22;11084;52.482;9.108;2022-10-16T04:36:04;11.50;99.90
21844;DHT22;11084;52.482;9.108;2022-10-16T04:38:31;11.50;99.90
21844;DHT22;11084;52.482;9.108;2022-10-16T04:40:57;11.60;99.90
21844;DHT22;11084;52.482;9.108;2022-10-16T04:43:23;11.50;99.90
21844;DHT22;11084;52.482;9.108;2022-10-16T04:45:49;11.60;99.90
21844;DHT22;11084;52.482;9.108;2022-10-16T04:48:16;11.60;99.90
21844;DHT22;11084;52.482;9.108;2022-10-16T04:50:43;11.60;99.90
21844;DHT22;11084;52.482;9.108;2022-10-16T04:53:09;11.50;99.90
21844;DHT22;11084;52.482;9.108;2022-10-16T04:55:35;11.60;99.90
21844;DHT22;11084;52.482;9.108;2022-10-16T04:58:01;11.60;99.90
21844;DHT22;11084;52.482;9.108;2022-10-16T05:00:27;11.60;99.90
21844;DHT22;11084;52.482;9.108;2022-10-16T05:02:53;11.60;99.90
21844;DHT22;11084;52.482;9.108;2022-10-16T05:05:19;11.60;99.90
21844;DHT22;11084;52.482;9.108;2022-10-16T05:07:46;11.70;99.90
21844;DHT22;11084;52.482;9.108;2022-10-16T05:10:13;11.70;99.90
21844;DHT22;11084;52.482;9.108;2022-10-16T05:12:39;11.70;99.90
21844;DHT22;11084;52.482;9.108;2022-10-16T05:15:05;11.70;99.90
21844;DHT22;11084;52.482;9.108;2022-10-16T05:17:31;11.70;99.90
21844;DHT22;11084;52.482;9.108;2022-10-16T05:19:57;11.80;99.90
21844;DHT22;11084;52.482;9.108;2022-10-16T05:22:23;11.80;99.90
21844;DHT22;11084;52.482;9.108;2022-10-16T05:24:49;11.80;99.90
21844;DHT22;11084;52.482;9.108;2022-10-16T05:27:15;11.80;99.90
21844;DHT22;11084;52.482;9.108;2022-10-16T05:29:46;11.80;99.90
21844;DHT22;11084;52.482;9.108;2022-10-16T05:32:13;11.80;99.90
21844;DHT22;11084;52.482;9.108;2022-10-16T05:34:40;11.80;99.90
21844;DHT22;11084;52.482;9.108;2022-10-16T05:37:05;11.80;99.90
21844;DHT22;11084;52.482;9.108;2022-10-16T05:39:34;11.80;99.90
21844;DHT22;11084;52.482;9.108;2022-10-16T05:42:00;11.80;99.90
21844;DHT22;11084;52.482;9.108;2022-10-16T05:44:26;11.90;99.90
21844;DHT22;11084;52.482;9.108;2022-10-16T05:49:18;11.90;99.90
21844;DHT22;11084;52.482;9.108;2022-10-16T05:51:44;11.90;99.90
21844;DHT22;11084;52.482;9.108;2022-10-16T05:54:10;11.90;99.90
21844;DHT22;11084;52.482;9.108;2022-10-16T05:56:36;11.90;99.90
21844;DHT22;11084;52.482;9.108;2022-10-16T05:59:03;11.90;99.90
21844;DHT22;11084;52.482;9.108;2022-10-16T06:01:30;11.90;99.90
21844;DHT22;11084;52.482;9.108;2022-10-16T06:03:56;12.00;99.90
21844;DHT22;11084;52.482;9.108;2022-10-16T06:06:25;12.00;99.90
21844;DHT22;11084;52.482;9.108;2022-10-16T06:08:55;12.00;99.90
21844;DHT22;11084;52.482;9.108;2022-10-16T06:11:25;12.00;99.90
21844;DHT22;11084;52.482;9.108;2022-10-16T06:13:55;12.10;99.90
21844;DHT22;11084;52.482;9.108;2022-10-16T06:16:23;12.10;99.90
21844;DHT22;11084;52.482;9.108;2022-10-16T06:18:51;12.20;99.90
21844;DHT22;11084;52.482;9.108;2022-10-16T06:21:20;12.00;99.90
21844;DHT22;11084;52.482;9.108;2022-10-16T06:23:47;12.30;99.90
21844;DHT22;11084;52.482;9.108;2022-10-16T06:26:17;12.40;99.90
21844;DHT22;11084;52.482;9.108;2022-10-16T06:28:44;12.40;99.90
21844;DHT22;11084;52.482;9.108;2022-10-16T06:31:11;12.50;99.90
21844;DHT22;11084;52.482;9.108;2022-10-16T06:33:40;12.60;99.90
21844;DHT22;11084;52.482;9.108;2022-10-16T06:36:11;12.70;99.90
21844;DHT22;11084;52.482;9.108;2022-10-16T06:38:39;13.70;99.90
21844;DHT22;11084;52.482;9.108;2022-10-16T06:41:07;15.00;99.90
21844;DHT22;11084;52.482;9.108;2022-10-16T06:43:35;16.00;99.90
21844;DHT22;11084;52.482;9.108;2022-10-16T06:46:02;16.00;99.90
21844;DHT22;11084;52.482;9.108;2022-10-16T06:48:31;18.40;99.90
21844;DHT22;11084;52.482;9.108;2022-10-16T06:51:05;18.40;99.90
21844;DHT22;11084;52.482;9.108;2022-10-16T06:53:39;19.20;99.90
21844;DHT22;11084;52.482;9.108;2022-10-16T06:56:17;20.00;99.90
21844;DHT22;11084;52.482;9.108;2022-10-16T06:58:45;21.20;99.90
21844;DHT22;11084;52.482;9.108;2022-10-16T07:01:13;21.30;99.90
21844;DHT22;11084;52.482;9.108;2022-10-16T07:03:41;20.20;99.90
21844;DHT22;11084;52.482;9.108;2022-10-16T07:06:09;19.30;99.90
21844;DHT22;11084;52.482;9.108;2022-10-16T07:08:39;18.70;99.90
21844;DHT22;11084;52.482;9.108;2022-10-16T07:11:08;18.20;99.90
21844;DHT22;11084;52.482;9.108;2022-10-16T07:13:36;17.70;99.90
21844;DHT22;11084;52.482;9.108;2022-10-16T07:16:13;17.60;99.90
21844;DHT22;11084;52.482;9.108;2022-10-16T07:18:41;17.60;99.90
21844;DHT22;11084;52.482;9.108;2022-10-16T07:21:10;17.80;99.90
21844;DHT22;11084;52.482;9.108;2022-10-16T07:23:52;17.80;99.90
21844;DHT22;11084;52.482;9.108;2022-10-16T07:26:19;17.90;99.90
21844;DHT22;11084;52.482;9.108;2022-10-16T07:28:45;17.80;99.90
21844;DHT22;11084;52.482;9.108;2022-10-16T07:31:13;17.70;99.90
21844;DHT22;11084;52.482;9.108;2022-10-16T07:33:42;17.60;99.90
21844;DHT22;11084;52.482;9.108;2022-10-16T07:36:10;17.70;99.90
21844;DHT22;11084;52.482;9.108;2022-10-16T07:38:36;17.60;99.90
21844;DHT22;11084;52.482;9.108;2022-10-16T07:41:09;17.30;99.90
21844;DHT22;11084;52.482;9.108;2022-10-16T07:43:40;17.40;99.90
21844;DHT22;11084;52.482;9.108;2022-10-16T07:46:06;17.20;99.90
21844;DHT22;11084;52.482;9.108;2022-10-16T07:48:34;17.20;99.90
21844;DHT22;11084;52.482;9.108;2022-10-16T07:51:01;17.40;99.90
21844;DHT22;11084;52.482;9.108;2022-10-16T07:53:30;17.40;99.90
21844;DHT22;11084;52.482;9.108;2022-10-16T07:56:00;17.40;99.90
21844;DHT22;11084;52.482;9.108;2022-10-16T07:58:31;17.30;99.90
21844;DHT22;11084;52.482;9.108;2022-10-16T08:00:58;17.20;99.90
21844;DHT22;11084;52.482;9.108;2022-10-16T08:03:24;17.20;99.90
21844;DHT22;11084;52.482;9.108;2022-10-16T08:05:51;17.10;99.90
21844;DHT22;11084;52.482;9.108;2022-10-16T08:08:18;17.00;99.90
21844;DHT22;11084;52.482;9.108;2022-10-16T08:10:45;17.30;99.90
21844;DHT22;11084;52.482;9.108;2022-10-16T08:13:11;17.50;99.90
21844;DHT22;11084;52.482;9.108;2022-10-16T08:15:40;17.70;99.90
21844;DHT22;11084;52.482;9.108;2022-10-16T08:18:07;18.00;99.90
21844;DHT22;11084;52.482;9.108;2022-10-16T08:20:34;18.40;99.90
21844;DHT22;11084;52.482;9.108;2022-10-16T08:23:00;18.70;99.90
21844;DHT22;11084;52.482;9.108;2022-10-16T08:25:27;18.90;99.90
21844;DHT22;11084;52.482;9.108;2022-10-16T08:27:53;19.10;99.90
21844;DHT22;11084;52.482;9.108;2022-10-16T08:30:21;19.10;99.90
21844;DHT22;11084;52.482;9.108;2022-10-16T08:32:48;19.40;99.90
21844;DHT22;11084;52.482;9.108;2022-10-16T08:35:14;19.60;99.90
21844;DHT22;11084;52.482;9.108;2022-10-16T08:37:41;19.80;99.90
21844;DHT22;11084;52.482;9.108;2022-10-16T08:40:21;19.90;99.90
21844;DHT22;11084;52.482;9.108;2022-10-16T08:51:29;20.00;99.90
21844;DHT22;11084;52.482;9.108;2022-10-16T08:56:48;19.90;99.90
21844;DHT22;11084;52.482;9.108;2022-10-16T08:59:14;19.90;99.90
21844;DHT22;11084;52.482;9.108;2022-10-16T09:01:45;19.80;99.90
21844;DHT22;11084;52.482;9.108;2022-10-16T09:23:18;20.20;99.90
21844;DHT22;11084;52.482;9.108;2022-10-16T09:25:49;20.30;99.90
21844;DHT22;11084;52.482;9.108;2022-10-16T09:28:18;20.40;99.90
21844;DHT22;11084;52.482;9.108;2022-10-16T09:30:46;20.50;99.90
21844;DHT22;11084;52.482;9.108;2022-10-16T09:33:18;20.30;99.90
21844;DHT22;11084;52.482;9.108;2022-10-16T09:35:49;20.10;99.90
21844;DHT22;11084;52.482;9.108;2022-10-16T09:38:29;20.00;99.90
21844;DHT22;11084;52.482;9.108;2022-10-16T09:40:57;19.80;99.90
21844;DHT22;11084;52.482;9.108;2022-10-16T09:46:08;19.70;99.90
21844;DHT22;11084;52.482;9.108;2022-10-16T09:48:49;19.60;99.90
21844;DHT22;11084;52.482;9.108;2022-10-16T09:53:48;19.30;99.90
21844;DHT22;11084;52.482;9.108;2022-10-16T09:56:41;19.30;99.90
21844;DHT22;11084;52.482;9.108;2022-10-16T09:59:13;19.10;99.90
21844;DHT22;11084;52.482;9.108;2022-10-16T10:01:51;19.10;99.90
21844;DHT22;11084;52.482;9.108;2022-10-16T10:04:19;19.10;99.90
21844;DHT22;11084;52.482;9.108;2022-10-16T10:06:52;19.10;99.90
21844;DHT22;11084;52.482;9.108;2022-10-16T10:09:25;19.10;99.90
21844;DHT22;11084;52.482;9.108;2022-10-16T10:11:55;19.20;99.90
21844;DHT22;11084;52.482;9.108;2022-10-16T10:19:49;19.40;99.90
21844;DHT22;11084;52.482;9.108;2022-10-16T10:22:29;19.50;99.90
21844;DHT22;11084;52.482;9.108;2022-10-16T10:31:03;19.60;99.90
21844;DHT22;11084;52.482;9.108;2022-10-16T10:36:36;19.60;99.90
21844;DHT22;11084;52.482;9.108;2022-10-16T10:39:14;19.60;99.90
21844;DHT22;11084;52.482;9.108;2022-10-16T10:44:41;19.70;99.90
21844;DHT22;11084;52.482;9.108;2022-10-16T10:50:41;19.80;99.90
21844;DHT22;11084;52.482;9.108;2022-10-16T10:59:51;19.60;99.90
21844;DHT22;11084;52.482;9.108;2022-10-16T11:02:48;19.50;99.90
21844;DHT22;11084;52.482;9.108;2022-10-16T11:05:41;19.60;99.90
21844;DHT22;11084;52.482;9.108;2022-10-16T11:08:36;19.60;99.90
21844;DHT22;11084;52.482;9.108;2022-10-16T11:11:11;19.50;99.90
21844;DHT22;11084;52.482;9.108;2022-10-16T11:13:57;19.60;99.90
21844;DHT22;11084;52.482;9.108;2022-10-16T11:16:38;19.70;99.90
21844;DHT22;11084;52.482;9.108;2022-10-16T11:24:57;19.90;99.90
21844;DHT22;11084;52.482;9.108;2022-10-16T11:27:37;20.00;99.90
21844;DHT22;11084;52.482;9.108;2022-10-16T11:30:25;20.00;99.90
21844;DHT22;11084;52.482;9.108;2022-10-16T11:33:04;20.00;99.90
21844;DHT22;11084;52.482;9.108;2022-10-16T11:36:16;19.90;99.90
21844;DHT22;11084;52.482;9.108;2022-10-16T11:38:59;19.70;99.90
21844;DHT22;11084;52.482;9.108;2022-10-16T11:50:26;19.80;99.90
21844;DHT22;11084;52.482;9.108;2022-10-16T11:53:02;19.80;99.90
21844;DHT22;11084;52.482;9.108;2022-10-16T11:55:34;19.80;99.90
21844;DHT22;11084;52.482;9.108;2022-10-16T12:01:28;19.90;99.90
21844;DHT22;11084;52.482;9.108;2022-10-16T12:07:02;19.90;99.90
21844;DHT22;11084;52.482;9.108;2022-10-16T12:09:34;19.80;99.90
21844;DHT22;11084;52.482;9.108;2022-10-16T12:12:02;19.80;99.90
21844;DHT22;11084;52.482;9.108;2022-10-16T12:17:24;19.80;99.90
21844;DHT22;11084;52.482;9.108;2022-10-16T12:22:37;19.90;99.90
21844;DHT22;11084;52.482;9.108;2022-10-16T12:28:27;19.70;99.90
21844;DHT22;11084;52.482;9.108;2022-10-16T12:31:04;19.80;99.90
21844;DHT22;11084;52.482;9.108;2022-10-16T12:33:37;19.80;99.90
21844;DHT22;11084;52.482;9.108;2022-10-16T12:36:13;19.80;99.90
21844;DHT22;11084;52.482;9.108;2022-10-16T12:38:50;19.70;99.90
21844;DHT22;11084;52.482;9.108;2022-10-16T12:41:33;19.70;99.90
21844;DHT22;11084;52.482;9.108;2022-10-16T12:44:01;19.70;99.90
21844;DHT22;11084;52.482;9.108;2022-10-16T12:51:41;19.90;99.90
21844;DHT22;11084;52.482;9.108;2022-10-16T12:54:25;19.90;99.90
21844;DHT22;11084;52.482;9.108;2022-10-16T13:02:49;19.80;99.90
21844;DHT22;11084;52.482;9.108;2022-10-16T13:08:29;19.80;99.90
21844;DHT22;11084;52.482;9.108;2022-10-16T13:17:34;19.70;99.90
21844;DHT22;11084;52.482;9.108;2022-10-16T13:20:36;19.70;99.90
21844;DHT22;11084;52.482;9.108;2022-10-16T13:29:24;19.70;99.90
21844;DHT22;11084;52.482;9.108;2022-10-16T13:31:56;19.70;99.90
21844;DHT22;11084;52.482;9.108;2022-10-16T13:34:23;19.70;99.90
21844;DHT22;11084;52.482;9.108;2022-10-16T13:36:52;19.60;99.90
21844;DHT22;11084;52.482;9.108;2022-10-16T13:39:25;19.60;99.90
21844;DHT22;11084;52.482;9.108;2022-10-16T13:42:05;19.60;99.90
21844;DHT22;11084;52.482;9.108;2022-10-16T13:44:43;19.60;99.90
21844;DHT22;11084;52.482;9.108;2022-10-16T13:47:23;19.50;99.90
21844;DHT22;11084;52.482;9.108;2022-10-16T13:50:26;19.40;99.90
21844;DHT22;11084;52.482;9.108;2022-10-16T13:52:51;19.40;99.90
21844;DHT22;11084;52.482;9.108;2022-10-16T13:55:18;19.30;99.90
21844;DHT22;11084;52.482;9.108;2022-10-16T13:57:44;19.20;99.90
21844;DHT22;11084;52.482;9.108;2022-10-16T14:02:57;19.20;99.90
21844;DHT22;11084;52.482;9.108;2022-10-16T14:05:28;19.10;99.90
21844;DHT22;11084;52.482;9.108;2022-10-16T14:07:55;19.10;99.90
21844;DHT22;11084;52.482;9.108;2022-10-16T14:10:25;19.10;99.90
21844;DHT22;11084;52.482;9.108;2022-10-16T14:13:01;19.10;99.90
21844;DHT22;11084;52.482;9.108;2022-10-16T14:15:32;19.00;99.90
21844;DHT22;11084;52.482;9.108;2022-10-16T14:17:59;19.00;99.90
21844;DHT22;11084;52.482;9.108;2022-10-16T14:20:28;18.90;99.90
21844;DHT22;11084;52.482;9.108;2022-10-16T14:23:16;18.90;99.90
21844;DHT22;11084;52.482;9.108;2022-10-16T14:25:46;18.90;99.90
21844;DHT22;11084;52.482;9.108;2022-10-16T14:28:22;18.80;99.90
21844;DHT22;11084;52.482;9.108;2022-10-16T14:30:59;18.70;99.90
21844;DHT22;11084;52.482;9.108;2022-10-16T14:36:04;18.70;99.90
21844;DHT22;11084;52.482;9.108;2022-10-16T14:38:39;18.60;99.90
21844;DHT22;11084;52.482;9.108;2022-10-16T14:41:07;18.60;99.90
21844;DHT22;11084;52.482;9.108;2022-10-16T14:43:37;18.50;99.90
21844;DHT22;11084;52.482;9.108;2022-10-16T14:46:28;18.40;99.90
21844;DHT22;11084;52.482;9.108;2022-10-16T14:51:42;18.30;99.90
21844;DHT22;11084;52.482;9.108;2022-10-16T14:54:14;18.20;99.90
21844;DHT22;11084;52.482;9.108;2022-10-16T14:56:43;18.20;99.90
21844;DHT22;11084;52.482;9.108;2022-10-16T14:59:28;18.10;99.90
21844;DHT22;11084;52.482;9.108;2022-10-16T15:01:59;18.10;99.90
21844;DHT22;11084;52.482;9.108;2022-10-16T15:04:26;18.00;99.90
21844;DHT22;11084;52.482;9.108;2022-10-16T15:06:52;18.00;99.90
21844;DHT22;11084;52.482;9.108;2022-10-16T15:09:18;18.00;99.90
21844;DHT22;11084;52.482;9.108;2022-10-16T15:11:44;17.90;99.90
21844;DHT22;11084;52.482;9.108;2022-10-16T15:14:12;17.80;99.90
21844;DHT22;11084;52.482;9.108;2022-10-16T15:16:39;17.80;99.90
21844;DHT22;11084;52.482;9.108;2022-10-16T15:19:05;17.70;99.90
21844;DHT22;11084;52.482;9.108;2022-10-16T15:21:32;17.70;99.90
21844;DHT22;11084;52.482;9.108;2022-10-16T15:23:59;17.60;99.90
21844;DHT22;11084;52.482;9.108;2022-10-16T15:26:27;17.60;99.90
21844;DHT22;11084;52.482;9.108;2022-10-16T15:28:55;17.50;99.90
21844;DHT22;11084;52.482;9.108;2022-10-16T15:31:21;17.50;99.90
21844;DHT22;11084;52.482;9.108;2022-10-16T15:33:50;17.40;99.90
21844;DHT22;11084;52.482;9.108;2022-10-16T15:36:29;17.40;99.90
21844;DHT22;11084;52.482;9.108;2022-10-16T15:38:59;17.30;99.90
21844;DHT22;11084;52.482;9.108;2022-10-16T15:41:26;17.20;99.90
21844;DHT22;11084;52.482;9.108;2022-10-16T15:43:52;17.20;99.90
21844;DHT22;11084;52.482;9.108;2022-10-16T15:46:20;17.10;99.90
21844;DHT22;11084;52.482;9.108;2022-10-16T15:48:51;17.10;99.90
21844;DHT22;11084;52.482;9.108;2022-10-16T15:51:22;17.00;99.90
21844;DHT22;11084;52.482;9.108;2022-10-16T15:53:48;16.90;99.90
21844;DHT22;11084;52.482;9.108;2022-10-16T15:56:14;16.90;99.90
21844;DHT22;11084;52.482;9.108;2022-10-16T15:58:42;16.80;99.90
21844;DHT22;11084;52.482;9.108;2022-10-16T16:01:08;16.70;99.90
21844;DHT22;11084;52.482;9.108;2022-10-16T16:03:37;16.60;99.90
21844;DHT22;11084;52.482;9.108;2022-10-16T16:06:08;16.60;99.90
21844;DHT22;11084;52.482;9.108;2022-10-16T16:08:36;16.50;99.90
21844;DHT22;11084;52.482;9.108;2022-10-16T16:11:05;16.40;99.90
21844;DHT22;11084;52.482;9.108;2022-10-16T16:13:35;16.30;99.90
21844;DHT22;11084;52.482;9.108;2022-10-16T16:16:15;16.20;99.90
21844;DHT22;11084;52.482;9.108;2022-10-16T16:18:43;16.20;99.90
21844;DHT22;11084;52.482;9.108;2022-10-16T16:21:11;16.10;99.90
21844;DHT22;11084;52.482;9.108;2022-10-16T16:23:39;16.00;99.90
21844;DHT22;11084;52.482;9.108;2022-10-16T16:26:09;15.90;99.90
21844;DHT22;11084;52.482;9.108;2022-10-16T16:28:38;15.80;99.90
21844;DHT22;11084;52.482;9.108;2022-10-16T16:31:05;15.70;99.90
21844;DHT22;11084;52.482;9.108;2022-10-16T16:33:31;15.60;99.90
21844;DHT22;11084;52.482;9.108;2022-10-16T16:35:59;15.50;99.90
21844;DHT22;11084;52.482;9.108;2022-10-16T16:38:27;15.50;99.90
21844;DHT22;11084;52.482;9.108;2022-10-16T16:40:54;15.40;99.90
21844;DHT22;11084;52.482;9.108;2022-10-16T16:43:25;15.30;99.90
21844;DHT22;11084;52.482;9.108;2022-10-16T16:45:52;15.20;99.90
21844;DHT22;11084;52.482;9.108;2022-10-16T16:48:19;15.20;99.90
21844;DHT22;11084;52.482;9.108;2022-10-16T16:50:46;15.10;99.90
21844;DHT22;11084;52.482;9.108;2022-10-16T16:53:12;15.00;99.90
21844;DHT22;11084;52.482;9.108;2022-10-16T16:55:38;14.90;99.90
21844;DHT22;11084;52.482;9.108;2022-10-16T16:58:04;14.70;99.90
21844;DHT22;11084;52.482;9.108;2022-10-16T17:05:23;14.60;99.90
21844;DHT22;11084;52.482;9.108;2022-10-16T17:07:50;14.50;99.90
21844;DHT22;11084;52.482;9.108;2022-10-16T17:10:16;14.50;99.90
21844;DHT22;11084;52.482;9.108;2022-10-16T17:12:42;14.40;99.90
21844;DHT22;11084;52.482;9.108;2022-10-16T17:15:09;14.30;99.90
21844;DHT22;11084;52.482;9.108;2022-10-16T17:17:35;14.30;99.90
21844;DHT22;11084;52.482;9.108;2022-10-16T17:20:03;14.20;99.90
21844;DHT22;11084;52.482;9.108;2022-10-16T17:22:29;14.10;99.90
21844;DHT22;11084;52.482;9.108;2022-10-16T17:24:55;14.00;99.90
21844;DHT22;11084;52.482;9.108;2022-10-16T17:27:21;14.00;99.90
21844;DHT22;11084;52.482;9.108;2022-10-16T17:29:51;13.90;99.90
21844;DHT22;11084;52.482;9.108;2022-10-16T17:32:17;13.90;99.90
21844;DHT22;11084;52.482;9.108;2022-10-16T17:34:45;13.90;99.90
21844;DHT22;11084;52.482;9.108;2022-10-16T17:37:11;13.90;99.90
21844;DHT22;11084;52.482;9.108;2022-10-16T17:39:37;13.90;99.90
21844;DHT22;11084;52.482;9.108;2022-10-16T17:44:29;13.90;99.90
21844;DHT22;11084;52.482;9.108;2022-10-16T17:47:04;13.80;99.90
21844;DHT22;11084;52.482;9.108;2022-10-16T17:51:58;13.70;99.90
21844;DHT22;11084;52.482;9.108;2022-10-16T17:54:27;13.70;99.90
21844;DHT22;11084;52.482;9.108;2022-10-16T17:56:53;12.10;99.90
21844;DHT22;11084;52.482;9.108;2022-10-16T17:59:19;13.70;99.90
21844;DHT22;11084;52.482;9.108;2022-10-16T18:01:47;13.60;99.90
21844;DHT22;11084;52.482;9.108;2022-10-16T18:04:15;13.50;99.90
21844;DHT22;11084;52.482;9.108;2022-10-16T18:06:44;13.50;99.90
21844;DHT22;11084;52.482;9.108;2022-10-16T18:09:14;13.50;99.90
21844;DHT22;11084;52.482;9.108;2022-10-16T18:11:43;13.50;99.90
21844;DHT22;11084;52.482;9.108;2022-10-16T18:14:13;13.50;99.90
21844;DHT22;11084;52.482;9.108;2022-10-16T18:16:43;13.40;99.90
21844;DHT22;11084;52.482;9.108;2022-10-16T18:19:10;13.40;99.90
21844;DHT22;11084;52.482;9.108;2022-10-16T18:21:36;13.40;99.90
21844;DHT22;11084;52.482;9.108;2022-10-16T18:24:03;13.40;99.90
21844;DHT22;11084;52.482;9.108;2022-10-16T18:26:29;13.30;99.90
21844;DHT22;11084;52.482;9.108;2022-10-16T18:28:57;13.30;99.90
21844;DHT22;11084;52.482;9.108;2022-10-16T18:31:25;13.30;99.90
21844;DHT22;11084;52.482;9.108;2022-10-16T18:33:51;13.30;99.90
21844;DHT22;11084;52.482;9.108;2022-10-16T18:36:26;13.20;99.90
21844;DHT22;11084;52.482;9.108;2022-10-16T18:38:56;13.20;99.90
21844;DHT22;11084;52.482;9.108;2022-10-16T18:41:22;13.20;99.90